Time;durP1;ratioP1;P1;durP2;ratioP2;P2;SDS_P1;SDS_P2;PMS_P1;PMS_P2;Temp;Humidity;BMP_temperature;BMP_pressure;BME280_temperature;BME280_humidity;BME280_pressure;Samples;Min_cycle;Max_cycle;Signal;HPM_P1;HPM_P2
2021/12/07 00:02:03;;;;;;;10.63;7.30;;;;;;;-0.85;100.00;94055.81;5030535;28;20226;-72
2021/12/07 00:04:29;;;;;;;10.03;7.30;;;;;;;-0.76;100.00;94058.72;5032854;28;20215;-72
2021/12/07 00:06:55;;;;;;;8.33;6.83;;;;;;;-0.86;100.00;94063.09;5050002;28;20256;-72
2021/12/07 00:09:22;;;;;;;9.90;6.77;;;;;;;-0.74;100.00;94065.22;5045505;28;20186;-73
2021/12/07 00:11:49;;;;;;;8.93;6.60;;;;;;;-0.78;100.00;94069.84;5049158;28;20216;-72
2021/12/07 00:14:23;;;;;;;11.03;7.77;;;;;;;-0.73;100.00;94063.28;5048608;28;20305;-72
2021/12/07 00:16:51;;;;;;;7.80;6.20;;;;;;;-0.86;100.00;94056.94;5052531;28;20197;-72
2021/12/07 00:19:18;;;;;;;10.03;7.33;;;;;;;-0.91;100.00;94065.44;5037802;28;20309;-73
2021/12/07 00:21:44;;;;;;;8.33;7.17;;;;;;;-0.94;100.00;94076.97;5032523;28;20198;-72
2021/12/07 00:24:12;;;;;;;9.03;7.37;;;;;;;-0.76;100.00;94056.81;5039827;28;20214;-72
2021/12/07 00:26:40;;;;;;;9.50;6.60;;;;;;;-0.94;100.00;94058.22;5050096;28;20202;-72
2021/12/07 00:29:08;;;;;;;8.20;6.57;;;;;;;-0.86;100.00;94071.13;5057432;28;20226;-73
2021/12/07 00:31:42;;;;;;;8.73;6.67;;;;;;;-0.69;100.00;94064.75;5032146;28;20282;-72
2021/12/07 00:34:21;;;;;;;8.30;6.27;;;;;;;-0.84;100.00;94060.75;5048846;28;20212;-72
2021/12/07 00:36:48;;;;;;;9.23;7.60;;;;;;;-0.97;100.00;94051.00;5042087;28;20203;-72
2021/12/07 00:39:20;;;;;;;8.83;6.57;;;;;;;-0.87;100.00;94052.78;5031631;28;20211;-73
2021/12/07 00:41:48;;;;;;;10.27;6.57;;;;;;;-0.72;100.00;94048.72;5032011;28;20648;-73
2021/12/07 00:44:15;;;;;;;7.67;6.23;;;;;;;-0.84;100.00;94042.00;5045843;28;20232;-72
2021/12/07 00:46:41;;;;;;;6.90;5.87;;;;;;;-1.01;100.00;94040.34;5013183;28;20277;-73
2021/12/07 00:49:07;;;;;;;8.80;6.80;;;;;;;-1.08;100.00;94020.91;5042696;28;20213;-72
2021/12/07 00:51:33;;;;;;;6.83;6.00;;;;;;;-1.37;100.00;94033.94;5069150;28;20244;-72
2021/12/07 00:54:00;;;;;;;7.70;6.73;;;;;;;-1.17;100.00;94026.75;5070188;28;20263;-72
2021/12/07 00:56:25;;;;;;;8.60;6.83;;;;;;;-0.99;100.00;94027.28;5062625;28;20195;-72
2021/12/07 00:58:51;;;;;;;8.47;6.30;;;;;;;-0.99;100.00;94021.16;5044601;28;20229;-72
2021/12/07 01:01:19;;;;;;;8.23;6.80;;;;;;;-0.91;100.00;94025.25;5050595;28;20266;-73
2021/12/07 01:03:45;;;;;;;8.60;6.57;;;;;;;-0.95;100.00;94016.53;5049655;28;20214;-72
2021/12/07 01:25:05;;;;;;;7.87;6.00;;;;;;;-0.93;100.00;94008.84;5044251;28;20190;-70
2021/12/07 01:27:30;;;;;;;6.90;5.80;;;;;;;-0.96;100.00;94015.00;5050904;28;20702;-71
2021/12/07 01:30:10;;;;;;;5.43;4.60;;;;;;;-0.89;100.00;94012.22;5041650;28;20195;-70
2021/12/07 01:32:55;;;;;;;7.97;4.57;;;;;;;-0.85;100.00;94020.97;5031340;28;20213;-73
2021/12/07 01:35:45;;;;;;;5.20;4.27;;;;;;;-0.93;100.00;94017.63;5013838;28;20179;-71
2021/12/07 01:43:52;;;;;;;5.60;3.60;;;;;;;-1.00;100.00;94031.13;5039544;28;20222;-73
2021/12/07 01:59:52;;;;;;;2.23;1.83;;;;;;;-0.79;100.00;94013.97;5039103;28;20215;-72
2021/12/07 02:02:20;;;;;;;2.20;1.97;;;;;;;-0.62;100.00;94011.03;5038221;28;20686;-72
2021/12/07 02:04:46;;;;;;;1.97;1.77;;;;;;;-0.52;100.00;94006.66;5049870;28;20186;-72
2021/12/07 02:07:15;;;;;;;1.97;1.70;;;;;;;-0.60;100.00;94005.25;5046030;28;20312;-72
2021/12/07 02:09:51;;;;;;;1.93;1.40;;;;;;;-0.71;100.00;94005.41;5033676;28;20306;-72
2021/12/07 02:12:17;;;;;;;2.80;2.00;;;;;;;-0.77;100.00;94001.69;5044104;28;20187;-72
2021/12/07 02:14:43;;;;;;;2.60;1.53;;;;;;;-0.86;100.00;94001.44;5031297;28;20199;-72
2021/12/07 02:17:13;;;;;;;1.93;1.60;;;;;;;-0.70;100.00;93990.88;5013375;28;20273;-72
2021/12/07 02:19:41;;;;;;;2.67;1.70;;;;;;;-0.74;100.00;93989.38;5001951;28;20217;-72
2021/12/07 02:22:10;;;;;;;3.47;1.47;;;;;;;-0.63;100.00;93996.09;5051864;28;20213;-72
2021/12/07 02:24:41;;;;;;;7.40;3.60;;;;;;;-0.59;100.00;93974.59;5039826;28;20244;-72
2021/12/07 02:27:07;;;;;;;4.10;2.10;;;;;;;-0.68;100.00;93971.69;5049536;28;20190;-72
2021/12/07 02:29:33;;;;;;;5.40;2.30;;;;;;;-0.70;100.00;93974.03;5017541;28;20198;-72
2021/12/07 02:32:00;;;;;;;3.97;2.43;;;;;;;-0.72;100.00;93966.38;5040543;28;20277;-72
2021/12/07 02:34:26;;;;;;;4.70;2.83;;;;;;;-0.52;100.00;93972.56;5019014;28;20211;-72
2021/12/07 02:36:55;;;;;;;1.97;1.67;;;;;;;-0.65;100.00;93970.88;5070078;28;20273;-72
2021/12/07 02:39:35;;;;;;;2.33;2.00;;;;;;;-0.60;100.00;93976.53;5078234;28;20211;-72
2021/12/07 02:42:04;;;;;;;1.83;1.73;;;;;;;-0.66;100.00;93964.75;5029963;28;20195;-73
2021/12/07 02:44:32;;;;;;;2.43;1.83;;;;;;;-0.62;100.00;93984.22;5056123;28;20207;-72
2021/12/07 02:46:58;;;;;;;2.87;2.10;;;;;;;-0.62;100.00;93973.50;5042941;28;20202;-72
2021/12/07 02:49:24;;;;;;;3.53;1.80;;;;;;;-0.54;100.00;93966.06;5036711;28;20199;-72
2021/12/07 02:51:50;;;;;;;2.73;1.60;;;;;;;-0.46;100.00;93968.22;5035252;28;20321;-72
2021/12/07 02:54:17;;;;;;;1.63;1.33;;;;;;;-0.47;100.00;93960.59;5033348;28;20214;-72
2021/12/07 02:56:44;;;;;;;1.97;1.60;;;;;;;-0.42;100.00;93968.16;5051858;28;20222;-72
2021/12/07 02:59:10;;;;;;;2.13;1.60;;;;;;;-0.33;100.00;93979.13;5047227;28;20289;-72
2021/12/07 03:01:43;;;;;;;1.70;1.17;;;;;;;-0.44;100.00;93979.31;5036970;28;20202;-72
2021/12/07 03:04:16;;;;;;;3.03;1.53;;;;;;;-0.30;100.00;93989.03;5047177;28;20218;-72
2021/12/07 03:07:08;;;;;;;1.97;1.10;;;;;;;-0.22;100.00;93998.50;5053792;28;20836;-72
2021/12/07 03:26:02;;;;;;;1.30;1.20;;;;;;;-0.41;100.00;94001.88;5045492;28;20562;-72
2021/12/07 03:28:32;;;;;;;1.20;1.10;;;;;;;-0.52;100.00;94010.09;5040327;28;20282;-73
2021/12/07 03:30:59;;;;;;;1.37;1.23;;;;;;;-0.55;100.00;94000.19;5032451;28;20246;-73
2021/12/07 03:33:25;;;;;;;2.50;1.27;;;;;;;-0.73;100.00;93999.69;5032009;28;20219;-73
2021/12/07 03:35:51;;;;;;;1.10;0.97;;;;;;;-0.88;100.00;93998.41;5043614;28;20693;-73
2021/12/07 03:38:17;;;;;;;1.17;1.07;;;;;;;-0.81;100.00;94002.91;5068949;28;20225;-73
2021/12/07 03:40:44;;;;;;;0.93;0.93;;;;;;;-0.87;100.00;93991.91;5062365;28;20232;-72
2021/12/07 03:43:10;;;;;;;1.27;1.13;;;;;;;-0.73;100.00;94002.38;5047983;28;20642;-72
2021/12/07 03:45:36;;;;;;;1.73;1.20;;;;;;;-0.86;100.00;94006.03;5033643;28;20233;-72
2021/12/07 03:48:05;;;;;;;1.30;1.20;;;;;;;-0.85;100.00;94007.56;5014279;28;20202;-73
2021/12/07 03:50:32;;;;;;;1.40;1.10;;;;;;;-0.83;100.00;94007.94;5045648;28;20195;-73
2021/12/07 03:52:58;;;;;;;1.77;1.60;;;;;;;-0.57;100.00;94018.59;5064789;28;20278;-73
2021/12/07 03:55:24;;;;;;;2.20;1.40;;;;;;;-0.41;100.00;94024.06;5033533;28;20187;-73
2021/12/07 03:57:49;;;;;;;2.50;1.37;;;;;;;-0.54;100.00;94025.81;5045764;28;20278;-72
2021/12/07 04:00:20;;;;;;;3.20;1.43;;;;;;;-0.55;100.00;94018.19;5051613;28;20276;-73
2021/12/07 04:02:53;;;;;;;1.73;1.10;;;;;;;-0.66;100.00;94026.41;5051620;28;20210;-73
2021/12/07 04:05:22;;;;;;;1.20;1.13;;;;;;;-0.73;100.00;94020.41;5050654;28;20564;-72
2021/12/07 04:07:51;;;;;;;0.90;0.80;;;;;;;-0.62;100.00;94023.66;5058449;28;20201;-72
2021/12/07 04:10:19;;;;;;;1.07;0.97;;;;;;;-0.72;100.00;94019.22;5051322;28;20203;-72
2021/12/07 04:12:46;;;;;;;1.47;0.90;;;;;;;-0.67;100.00;94027.56;5014694;28;20222;-73
2021/12/07 04:15:15;;;;;;;0.93;0.90;;;;;;;-0.79;100.00;94009.38;5041007;28;20257;-73
2021/12/07 04:17:42;;;;;;;1.40;1.17;;;;;;;-0.61;100.00;94015.22;5052114;28;20209;-72
2021/12/07 04:20:10;;;;;;;0.80;0.80;;;;;;;-0.60;100.00;94011.38;5031403;28;20250;-72
2021/12/07 04:22:36;;;;;;;1.43;1.20;;;;;;;-0.60;100.00;94016.75;5045421;28;20652;-72
2021/12/07 04:25:05;;;;;;;1.73;1.00;;;;;;;-0.53;100.00;94022.00;5044448;28;20221;-72
2021/12/07 04:27:35;;;;;;;1.20;1.10;;;;;;;-0.50;100.00;94015.81;5050688;28;20220;-72
2021/12/07 04:30:01;;;;;;;1.00;1.00;;;;;;;-0.57;100.00;94025.88;5047189;28;20222;-72
2021/12/07 04:32:26;;;;;;;1.40;1.30;;;;;;;-0.55;100.00;94018.97;5030308;28;20206;-72
2021/12/07 04:34:52;;;;;;;1.13;0.93;;;;;;;-0.70;100.00;94009.63;5019480;28;20182;-72
2021/12/07 04:37:18;;;;;;;0.83;0.80;;;;;;;-0.60;100.00;94010.63;5051809;28;20210;-72
2021/12/07 04:39:43;;;;;;;1.63;0.90;;;;;;;-0.49;100.00;94011.97;5047127;28;20219;-71
2021/12/07 04:42:09;;;;;;;0.70;0.70;;;;;;;-0.40;100.00;94014.88;5033524;28;20236;-71
2021/12/07 04:44:42;;;;;;;1.00;0.90;;;;;;;-0.29;100.00;94022.75;5048773;28;20262;-71
2021/12/07 04:47:17;;;;;;;1.77;0.90;;;;;;;-0.39;100.00;94021.75;5046704;28;20205;-72
2021/12/07 04:50:03;;;;;;;0.90;0.90;;;;;;;-0.40;100.00;94017.56;5045450;28;20279;-72
2021/12/07 04:57:57;;;;;;;0.83;0.80;;;;;;;-0.25;100.00;94026.13;5045786;28;20668;-72
2021/12/07 05:00:26;;;;;;;1.43;0.80;;;;;;;-0.36;100.00;94029.00;5049541;28;20220;-72
2021/12/07 05:03:00;;;;;;;0.97;0.97;;;;;;;-0.22;100.00;94034.09;5046124;28;20684;-71
2021/12/07 05:05:32;;;;;;;0.97;0.80;;;;;;;-0.27;100.00;94031.13;5042677;28;20202;-72
2021/12/07 05:08:02;;;;;;;1.03;0.73;;;;;;;-0.23;100.00;94032.59;5059443;28;20633;-72
2021/12/07 05:18:51;;;;;;;0.80;0.70;;;;;;;0.09;100.00;94042.00;5061457;28;20661;-72
2021/12/07 05:24:06;;;;;;;2.30;0.70;;;;;;;-0.12;100.00;94045.84;5050677;28;20234;-71
2021/12/07 05:37:50;;;;;;;0.60;0.60;;;;;;;0.06;100.00;94054.31;5062114;28;20364;-72
2021/12/07 05:40:26;;;;;;;0.50;0.50;;;;;;;0.06;100.00;94065.06;5033062;28;20218;-71
2021/12/07 05:42:53;;;;;;;0.63;0.63;;;;;;;0.07;100.00;94049.72;5014152;28;20552;-72
2021/12/07 05:45:24;;;;;;;0.70;0.70;;;;;;;0.06;100.00;94065.06;5046946;28;20194;-71
2021/12/07 05:47:50;;;;;;;0.77;0.57;;;;;;;0.13;100.00;94067.63;5038698;28;20190;-71
2021/12/07 05:50:24;;;;;;;0.60;0.60;;;;;;;0.11;100.00;94061.13;5050554;28;20602;-72
2021/12/07 05:52:50;;;;;;;0.40;0.40;;;;;;;0.14;100.00;94066.44;5049435;28;20368;-71
2021/12/07 05:55:15;;;;;;;0.80;0.80;;;;;;;0.13;100.00;94074.91;5051410;28;20809;-71
2021/12/07 05:57:41;;;;;;;0.50;0.50;;;;;;;0.09;100.00;94072.28;5039682;28;20590;-72
2021/12/07 06:00:12;;;;;;;0.67;0.60;;;;;;;0.13;100.00;94069.53;5048775;28;20244;-71
2021/12/07 06:02:40;;;;;;;0.70;0.70;;;;;;;0.11;100.00;94080.69;5058063;28;20209;-71
2021/12/07 06:05:07;;;;;;;1.07;0.80;;;;;;;0.16;100.00;94087.50;5053955;28;20203;-71
2021/12/07 06:07:33;;;;;;;0.60;0.60;;;;;;;0.14;100.00;94085.22;5057996;28;20190;-71
2021/12/07 06:09:58;;;;;;;0.63;0.63;;;;;;;0.09;100.00;94084.94;5044950;28;20214;-71
2021/12/07 06:12:24;;;;;;;1.00;0.60;;;;;;;0.06;100.00;94094.59;5040354;28;20194;-72
2021/12/07 06:14:50;;;;;;;0.80;0.80;;;;;;;0.19;100.00;94087.44;5054261;28;20269;-72
2021/12/07 06:17:15;;;;;;;0.70;0.70;;;;;;;0.23;100.00;94072.03;5044949;28;20309;-71
2021/12/07 06:19:41;;;;;;;0.93;0.90;;;;;;;0.27;100.00;94099.59;5041191;28;20246;-71
2021/12/07 06:22:08;;;;;;;1.97;1.00;;;;;;;0.21;100.00;94087.03;5039577;28;20195;-71
2021/12/07 06:24:34;;;;;;;0.97;0.97;;;;;;;0.23;100.00;94087.38;5047648;28;20992;-71
2021/12/07 06:27:00;;;;;;;1.50;1.03;;;;;;;0.29;100.00;94093.81;5059770;28;20213;-71
2021/12/07 06:29:25;;;;;;;1.00;1.00;;;;;;;0.37;100.00;94081.78;5060729;28;20194;-71
2021/12/07 06:31:53;;;;;;;0.70;0.70;;;;;;;0.25;100.00;94096.56;5038397;28;20262;-71
2021/12/07 06:34:20;;;;;;;0.93;0.90;;;;;;;0.16;100.00;94095.56;5033138;28;20213;-71
2021/12/07 06:36:46;;;;;;;1.40;1.30;;;;;;;0.20;100.00;94096.25;5050039;28;20187;-71
2021/12/07 06:39:12;;;;;;;0.80;0.80;;;;;;;0.13;100.00;94086.41;5042808;28;20225;-71
2021/12/07 06:41:37;;;;;;;1.23;1.13;;;;;;;0.21;100.00;94095.09;5045888;28;20198;-71
2021/12/07 06:44:04;;;;;;;1.00;0.93;;;;;;;0.22;100.00;94102.00;5069953;28;20293;-71
2021/12/07 06:46:30;;;;;;;0.90;0.90;;;;;;;0.30;100.00;94108.75;5056676;28;20199;-71
2021/12/07 06:48:56;;;;;;;1.33;1.00;;;;;;;0.33;100.00;94115.97;5032529;28;20198;-71
2021/12/07 06:51:22;;;;;;;1.37;1.27;;;;;;;0.36;100.00;94115.91;5033391;28;20195;-71
2021/12/07 06:53:48;;;;;;;2.33;1.00;;;;;;;0.39;100.00;94127.78;5036371;28;20637;-71
2021/12/07 06:56:13;;;;;;;2.57;1.10;;;;;;;0.35;100.00;94127.06;5033630;28;20261;-71
2021/12/07 06:58:39;;;;;;;0.83;0.83;;;;;;;0.38;100.00;94127.00;5045887;28;20225;-71
2021/12/07 07:01:07;;;;;;;3.37;1.50;;;;;;;0.37;100.00;94133.56;5048565;28;20202;-71
2021/12/07 07:03:34;;;;;;;1.13;1.03;;;;;;;0.39;100.00;94141.19;5033371;28;20641;-71
2021/12/07 07:06:00;;;;;;;0.97;0.97;;;;;;;0.44;100.00;94144.16;5060570;28;20194;-71
2021/12/07 07:08:26;;;;;;;2.67;0.90;;;;;;;0.47;100.00;94140.66;5038112;28;20202;-71
2021/12/07 07:10:52;;;;;;;2.57;1.00;;;;;;;0.48;100.00;94144.09;5042950;28;20195;-71
2021/12/07 07:13:18;;;;;;;1.57;1.00;;;;;;;0.51;100.00;94152.09;5051104;28;20218;-71
2021/12/07 07:15:43;;;;;;;3.67;1.23;;;;;;;0.51;100.00;94156.72;5039665;28;20257;-70
2021/12/07 07:18:09;;;;;;;1.37;1.27;;;;;;;0.54;100.00;94150.50;5050682;28;20190;-71
2021/12/07 07:20:36;;;;;;;1.33;1.10;;;;;;;0.62;100.00;94166.09;5032224;28;20211;-71
2021/12/07 07:23:02;;;;;;;1.23;1.13;;;;;;;0.58;100.00;94180.75;5031257;28;20214;-71
2021/12/07 07:25:28;;;;;;;2.00;1.20;;;;;;;0.67;100.00;94176.38;5053549;28;20194;-72
2021/12/07 07:27:53;;;;;;;0.90;0.90;;;;;;;0.72;100.00;94180.50;5034137;28;20217;-71
2021/12/07 07:30:19;;;;;;;1.40;1.20;;;;;;;0.77;100.00;94182.72;5034419;28;20213;-71
2021/12/07 07:32:46;;;;;;;1.60;1.10;;;;;;;0.82;100.00;94182.22;5038857;28;20226;-71
2021/12/07 07:35:12;;;;;;;1.23;0.97;;;;;;;0.86;100.00;94197.13;5048401;28;20663;-71
2021/12/07 07:37:39;;;;;;;0.80;0.80;;;;;;;0.83;100.00;94199.88;5065025;28;20563;-71
2021/12/07 07:40:09;;;;;;;1.27;0.87;;;;;;;0.74;100.00;94211.19;5073534;28;20635;-71
2021/12/07 07:42:35;;;;;;;0.87;0.87;;;;;;;0.75;100.00;94222.66;5039286;28;20633;-71
2021/12/07 07:45:12;;;;;;;1.47;1.27;;;;;;;0.80;100.00;94200.69;5033623;28;20602;-71
2021/12/07 07:47:38;;;;;;;1.27;1.17;;;;;;;0.86;100.00;94215.19;5030931;28;20658;-71
2021/12/07 07:50:07;;;;;;;0.90;0.90;;;;;;;0.73;100.00;94233.81;5052835;28;20711;-71
2021/12/07 07:52:33;;;;;;;0.80;0.80;;;;;;;0.72;100.00;94235.00;5050613;28;20281;-71
2021/12/07 07:54:58;;;;;;;2.20;1.30;;;;;;;0.83;100.00;94219.44;5053301;28;20732;-71
2021/12/07 07:57:24;;;;;;;1.67;1.10;;;;;;;0.96;100.00;94235.72;5049082;28;20682;-71
2021/12/07 07:59:50;;;;;;;1.17;1.07;;;;;;;0.94;100.00;94243.44;5052548;28;20655;-71
2021/12/07 08:02:16;;;;;;;1.13;0.87;;;;;;;0.94;100.00;94233.47;5046805;28;20679;-71
2021/12/07 08:04:42;;;;;;;1.83;1.10;;;;;;;0.96;100.00;94235.72;5050310;28;20610;-71
2021/12/07 08:07:07;;;;;;;1.47;1.10;;;;;;;0.97;100.00;94237.25;5056997;28;20221;-71
2021/12/07 08:09:33;;;;;;;1.00;0.90;;;;;;;1.09;100.00;94240.09;5072909;28;20553;-71
2021/12/07 08:11:59;;;;;;;2.90;1.10;;;;;;;1.15;100.00;94237.69;5050516;28;20569;-73
2021/12/07 08:14:24;;;;;;;1.90;0.97;;;;;;;1.18;100.00;94234.16;5055188;28;20214;-71
2021/12/07 08:16:50;;;;;;;2.60;1.20;;;;;;;1.35;100.00;94227.69;5034857;28;20195;-71
2021/12/07 08:19:16;;;;;;;2.43;0.97;;;;;;;1.58;100.00;94224.16;5030101;28;20580;-71
2021/12/07 08:21:42;;;;;;;1.63;0.97;;;;;;;1.71;100.00;94233.88;5032730;28;20183;-71
2021/12/07 08:24:08;;;;;;;1.70;1.00;;;;;;;1.56;100.00;94234.56;5049805;28;20229;-71
2021/12/07 08:26:34;;;;;;;2.20;1.23;;;;;;;1.64;100.00;94246.69;5051222;28;20205;-73
2021/12/07 08:29:00;;;;;;;1.30;1.20;;;;;;;1.66;100.00;94238.97;5049509;28;20224;-71
2021/12/07 08:31:28;;;;;;;1.20;1.10;;;;;;;1.58;100.00;94232.22;5049766;28;20194;-72
2021/12/07 08:33:54;;;;;;;2.97;1.60;;;;;;;1.59;100.00;94233.75;5047398;28;20210;-72
2021/12/07 08:36:20;;;;;;;2.03;1.20;;;;;;;1.53;100.00;94235.41;5051074;28;20217;-72
2021/12/07 08:38:47;;;;;;;3.90;1.10;;;;;;;1.46;100.00;94235.56;5045751;28;20230;-72
2021/12/07 08:41:14;;;;;;;3.17;1.17;;;;;;;1.47;100.00;94240.50;5031357;28;20195;-72
2021/12/07 08:43:41;;;;;;;4.07;1.33;;;;;;;1.61;100.00;94253.69;5045572;28;20209;-72
2021/12/07 08:46:10;;;;;;;4.10;1.27;;;;;;;1.94;100.00;94246.44;5053896;28;20201;-72
2021/12/07 08:48:36;;;;;;;4.27;1.20;;;;;;;1.77;100.00;94240.28;5042968;28;20292;-71
2021/12/07 08:51:07;;;;;;;2.90;1.60;;;;;;;1.90;100.00;94246.53;5059349;28;20217;-71
2021/12/07 08:53:35;;;;;;;1.67;1.20;;;;;;;1.95;100.00;94239.91;5050234;28;20214;-71
2021/12/07 09:01:31;;;;;;;1.20;1.10;;;;;;;2.30;100.00;94242.56;5048838;28;20223;-71
2021/12/07 09:03:58;;;;;;;1.07;1.00;;;;;;;2.23;100.00;94245.41;5034008;28;20230;-71
2021/12/07 09:06:25;;;;;;;4.63;1.03;;;;;;;2.26;100.00;94244.56;5058736;28;20644;-71
2021/12/07 09:08:52;;;;;;;1.13;1.03;;;;;;;2.29;100.00;94249.09;5030151;28;20199;-71
2021/12/07 09:11:18;;;;;;;1.90;1.07;;;;;;;2.25;100.00;94251.16;5031645;28;20707;-72
2021/12/07 09:13:44;;;;;;;3.90;1.30;;;;;;;2.32;100.00;94259.03;5046995;28;20301;-71
2021/12/07 09:16:12;;;;;;;2.47;1.30;;;;;;;2.13;100.00;94261.81;5049337;28;20690;-71
2021/12/07 09:18:37;;;;;;;1.60;0.90;;;;;;;2.27;100.00;94267.63;5040722;28;20222;-71
2021/12/07 09:21:04;;;;;;;3.77;1.73;;;;;;;2.43;100.00;94264.97;5031913;28;20700;-72
2021/12/07 09:23:31;;;;;;;4.53;1.10;;;;;;;2.25;100.00;94272.69;5034413;28;20781;-71
2021/12/07 09:25:57;;;;;;;4.73;1.43;;;;;;;2.51;100.00;94276.34;5048066;28;20559;-71
2021/12/07 09:28:24;;;;;;;1.37;1.07;;;;;;;2.33;100.00;94287.50;5059356;28;20194;-71
2021/12/07 09:30:51;;;;;;;2.27;1.40;;;;;;;2.20;100.00;94273.19;5049529;28;20248;-71
2021/12/07 09:33:19;;;;;;;2.20;1.00;;;;;;;2.07;100.00;94280.38;5036432;28;20206;-71
2021/12/07 09:35:44;;;;;;;2.40;1.40;;;;;;;2.20;100.00;94277.81;5052595;28;20344;-72
2021/12/07 09:38:11;;;;;;;3.23;1.00;;;;;;;2.15;100.00;94275.63;5065389;28;20727;-71
2021/12/07 09:40:37;;;;;;;1.43;1.23;;;;;;;2.22;100.00;94286.97;5071020;28;20221;-71
2021/12/07 09:43:03;;;;;;;3.17;1.33;;;;;;;1.99;100.00;94279.03;5032587;28;20317;-71
2021/12/07 09:45:30;;;;;;;3.23;1.20;;;;;;;2.00;100.00;94285.91;5036969;28;20277;-71
2021/12/07 09:47:59;;;;;;;4.70;1.30;;;;;;;1.98;100.00;94282.91;5043238;28;20203;-71
2021/12/07 09:50:25;;;;;;;2.13;1.20;;;;;;;1.97;100.00;94278.69;5038423;28;20209;-71
2021/12/07 09:52:51;;;;;;;3.63;1.23;;;;;;;1.84;100.00;94277.03;5044652;28;20218;-71
2021/12/07 09:55:18;;;;;;;2.93;1.40;;;;;;;1.82;100.00;94280.16;5052247;28;20247;-71
2021/12/07 09:57:47;;;;;;;1.47;1.37;;;;;;;1.90;100.00;94286.16;5041186;28;20401;-71
2021/12/07 10:00:17;;;;;;;2.23;1.50;;;;;;;1.87;100.00;94278.91;5056885;28;20225;-71
2021/12/07 10:02:43;;;;;;;4.20;1.40;;;;;;;1.97;100.00;94277.94;5049764;28;20269;-71
2021/12/07 10:05:09;;;;;;;5.03;2.50;;;;;;;2.06;100.00;94272.72;5036050;28;20191;-71
2021/12/07 10:07:37;;;;;;;2.30;1.50;;;;;;;2.17;100.00;94274.00;5030728;28;20336;-71
2021/12/07 10:10:09;;;;;;;4.13;1.40;;;;;;;2.26;100.00;94274.19;5029278;28;20290;-71
2021/12/07 10:12:36;;;;;;;3.00;1.67;;;;;;;2.20;100.00;94281.28;5033488;28;20198;-71
2021/12/07 10:15:08;;;;;;;3.30;1.50;;;;;;;2.37;100.00;94274.72;5049635;28;20199;-71
2021/12/07 10:17:42;;;;;;;2.10;1.40;;;;;;;2.58;100.00;94278.09;5038868;28;20199;-71
2021/12/07 10:20:38;;;;;;;4.00;1.70;;;;;;;2.80;100.00;94271.75;5046863;28;20297;-71
2021/12/07 10:23:22;;;;;;;1.33;1.17;;;;;;;3.19;100.00;94276.19;5038989;28;20218;-71
2021/12/07 10:25:54;;;;;;;1.63;1.13;;;;;;;3.50;98.13;94278.03;5035625;28;20192;-71
2021/12/07 10:28:43;;;;;;;1.43;1.33;;;;;;;3.95;94.08;94267.16;5041205;28;20282;-71
2021/12/07 10:31:09;;;;;;;3.63;1.10;;;;;;;4.05;91.07;94262.63;5049016;28;20201;-71
2021/12/07 10:33:41;;;;;;;5.73;1.60;;;;;;;3.61;94.63;94264.25;5049600;28;20214;-71
2021/12/07 10:36:35;;;;;;;1.87;1.10;;;;;;;3.63;93.06;94272.69;5047154;28;20206;-71
2021/12/07 10:39:23;;;;;;;2.10;1.37;;;;;;;4.01;91.44;94265.41;5052535;28;20222;-71
2021/12/07 10:42:02;;;;;;;5.23;1.43;;;;;;;4.30;89.57;94260.69;5046855;28;20186;-72
2021/12/07 10:44:32;;;;;;;4.20;1.33;;;;;;;4.35;89.11;94253.97;5030654;28;20610;-71
2021/12/07 10:47:01;;;;;;;2.37;1.23;;;;;;;3.93;90.06;94264.13;5047420;28;20195;-72
2021/12/07 10:49:46;;;;;;;3.17;1.10;;;;;;;3.90;90.40;94250.72;5038455;28;20329;-72
2021/12/07 10:52:17;;;;;;;3.73;1.77;;;;;;;3.90;90.27;94259.59;5047244;28;20198;-71
2021/12/07 10:54:59;;;;;;;1.20;1.10;;;;;;;3.70;91.81;94261.69;5029256;28;20266;-72
2021/12/07 10:57:36;;;;;;;2.33;1.27;;;;;;;3.63;92.73;94270.00;5046289;28;20840;-71
2021/12/07 11:00:22;;;;;;;2.90;1.30;;;;;;;3.49;94.39;94275.78;5051990;28;20264;-71
2021/12/07 11:03:19;;;;;;;2.53;1.00;;;;;;;3.55;92.35;94274.81;5030823;28;20215;-71
2021/12/07 11:05:53;;;;;;;1.37;1.03;;;;;;;3.58;93.01;94284.75;5049156;28;20260;-71
2021/12/07 11:08:22;;;;;;;3.53;1.40;;;;;;;3.78;92.42;94281.91;5044196;28;20216;-71
2021/12/07 11:10:49;;;;;;;2.40;1.07;;;;;;;3.86;91.05;94279.75;5052847;28;20182;-71
2021/12/07 11:13:21;;;;;;;1.53;1.23;;;;;;;3.52;91.93;94273.00;5041149;28;20588;-71
2021/12/07 11:15:54;;;;;;;1.20;1.10;;;;;;;3.42;94.20;94270.56;5032774;28;20218;-72
2021/12/07 11:18:25;;;;;;;3.03;1.13;;;;;;;3.82;95.08;94255.56;5032859;28;20235;-71
2021/12/07 11:20:52;;;;;;;2.27;1.00;;;;;;;3.51;93.86;94260.66;5033953;28;20280;-71
2021/12/07 11:23:31;;;;;;;2.10;1.00;;;;;;;3.44;94.83;94250.06;5036627;28;20219;-71
2021/12/07 11:31:27;;;;;;;3.87;1.43;;;;;;;2.98;94.13;94249.75;5041552;28;20191;-71
2021/12/07 11:34:14;;;;;;;2.90;1.00;;;;;;;3.08;93.97;94254.13;5031920;28;20253;-71
2021/12/07 11:36:44;;;;;;;1.57;1.10;;;;;;;3.28;93.81;94247.41;5049610;28;20188;-71
2021/12/07 11:39:37;;;;;;;3.43;1.47;;;;;;;3.56;92.80;94254.72;5053230;28;20218;-71
2021/12/07 11:42:14;;;;;;;3.90;1.23;;;;;;;3.35;91.70;94257.25;5053369;28;20863;-71
2021/12/07 11:44:59;;;;;;;1.13;1.00;;;;;;;3.02;91.96;94253.13;5048410;28;20214;-72
2021/12/07 11:47:28;;;;;;;3.03;1.43;;;;;;;3.26;91.66;94254.41;5046071;28;20210;-71
2021/12/07 11:49:54;;;;;;;1.70;1.20;;;;;;;3.08;91.48;94256.81;5035153;28;20201;-71
2021/12/07 11:52:19;;;;;;;2.57;1.40;;;;;;;2.91;92.81;94244.53;5070286;28;20197;-71
2021/12/07 11:54:45;;;;;;;2.60;1.10;;;;;;;2.96;93.41;94262.91;5071954;28;20186;-71
2021/12/07 11:57:16;;;;;;;2.30;1.10;;;;;;;3.11;93.71;94242.47;5044395;28;20329;-72
2021/12/07 11:59:42;;;;;;;2.63;1.20;;;;;;;3.10;92.23;94247.13;5051442;28;20253;-72
2021/12/07 12:02:07;;;;;;;4.53;1.20;;;;;;;2.93;91.50;94258.38;5047758;28;20197;-71
2021/12/07 12:04:33;;;;;;;3.13;1.27;;;;;;;3.12;92.05;94257.50;5064361;28;20214;-71
2021/12/07 12:07:00;;;;;;;1.43;1.20;;;;;;;3.08;94.23;94248.72;5055798;28;20207;-72
2021/12/07 12:09:28;;;;;;;1.70;1.10;;;;;;;3.02;92.99;94245.78;5041878;28;20194;-71
2021/12/07 12:12:12;;;;;;;4.27;1.33;;;;;;;3.14;92.20;94257.84;5064170;28;20327;-71
2021/12/07 12:15:03;;;;;;;5.47;1.50;;;;;;;3.01;94.41;94246.22;5067193;28;20205;-71
2021/12/07 12:17:38;;;;;;;2.07;0.87;;;;;;;3.27;93.48;94239.75;5032825;28;20199;-71
2021/12/07 12:20:22;;;;;;;1.53;1.23;;;;;;;3.42;92.75;94236.25;5032529;28;20302;-71
2021/12/07 12:23:10;;;;;;;2.80;1.10;;;;;;;3.28;91.68;94236.63;5039288;28;20211;-71
2021/12/07 12:25:36;;;;;;;3.90;1.60;;;;;;;3.19;92.34;94224.94;5052076;28;20190;-71
2021/12/07 12:28:02;;;;;;;4.77;2.07;;;;;;;3.18;93.51;94234.97;5047473;28;20190;-71
2021/12/07 12:30:35;;;;;;;3.87;1.70;;;;;;;3.17;92.25;94230.00;5033593;28;20191;-72
2021/12/07 12:33:08;;;;;;;1.43;1.00;;;;;;;3.11;92.55;94234.38;5031536;28;20257;-72
2021/12/07 12:35:38;;;;;;;2.87;1.37;;;;;;;3.18;92.22;94226.09;5031170;28;20199;-71
2021/12/07 12:38:25;;;;;;;1.97;1.10;;;;;;;3.37;90.85;94222.50;5036345;28;20301;-72
2021/12/07 12:41:11;;;;;;;3.67;1.13;;;;;;;2.98;91.70;94217.41;5054835;28;20228;-72
2021/12/07 12:43:49;;;;;;;2.70;1.23;;;;;;;2.89;90.75;94217.25;5070636;28;20217;-71
2021/12/07 12:46:19;;;;;;;1.43;1.00;;;;;;;2.92;93.34;94219.09;5051560;28;20575;-71
2021/12/07 12:48:49;;;;;;;5.07;1.30;;;;;;;2.95;92.46;94219.03;5031979;28;20240;-71
2021/12/07 12:51:17;;;;;;;2.63;1.00;;;;;;;3.05;91.50;94217.22;5057062;28;20273;-71
2021/12/07 12:53:44;;;;;;;3.70;1.60;;;;;;;2.88;91.14;94218.44;5034008;28;20790;-71
2021/12/07 12:56:14;;;;;;;1.67;1.10;;;;;;;2.91;91.09;94215.66;5051597;28;20185;-71
2021/12/07 12:58:52;;;;;;;6.27;1.20;;;;;;;2.98;90.17;94212.00;5032809;28;20644;-71
2021/12/07 13:01:29;;;;;;;3.70;1.13;;;;;;;3.19;89.82;94212.19;5032936;28;20636;-71
2021/12/07 13:03:54;;;;;;;1.70;1.20;;;;;;;3.04;90.29;94208.34;5048498;28;20264;-72
2021/12/07 13:06:42;;;;;;;1.60;1.13;;;;;;;3.20;89.50;94208.31;5051838;28;20564;-72
2021/12/07 13:09:22;;;;;;;5.60;1.27;;;;;;;3.27;88.04;94212.78;5050239;28;20179;-71
2021/12/07 13:12:04;;;;;;;5.47;1.23;;;;;;;3.17;88.89;94214.56;5033293;28;20649;-72
2021/12/07 13:14:33;;;;;;;4.33;1.30;;;;;;;3.00;88.73;94205.00;5049930;28;20687;-71
2021/12/07 13:17:14;;;;;;;2.87;0.90;;;;;;;3.25;88.06;94202.41;5040280;28;20566;-72